Time;durP1;ratioP1;P1;durP2;ratioP2;P2;SDS_P1;SDS_P2;PMS_P1;PMS_P2;Temp;Humidity;BMP_temperature;BMP_pressure;BME280_temperature;BME280_humidity;BME280_pressure;Samples;Min_cycle;Max_cycle;Signal;HPM_P1;HPM_P2
2022/04/15 00:01:44;;;;;;;26.05;18.20;;;8.90;71.70;;;;;;5033708;28;20021;-14
2022/04/15 00:04:10;;;;;;;25.42;16.85;;;8.90;72.10;;;;;;5033333;28;20485;-14
2022/04/15 00:06:36;;;;;;;36.47;20.55;;;8.80;72.60;;;;;;5032994;28;20056;-15
2022/04/15 00:09:03;;;;;;;29.52;19.63;;;8.80;72.80;;;;;;5033338;28;20059;-15
2022/04/15 00:11:31;;;;;;;29.15;19.20;;;8.80;73.00;;;;;;5033366;28;20021;-17
2022/04/15 00:13:57;;;;;;;30.38;20.85;;;8.70;73.40;;;;;;5032719;28;20095;-14
2022/04/15 00:16:23;;;;;;;30.85;19.80;;;8.70;73.40;;;;;;5033551;28;20030;-16
2022/04/15 00:18:48;;;;;;;31.63;19.85;;;8.70;72.90;;;;;;5033510;28;20108;-14
2022/04/15 00:21:14;;;;;;;37.13;23.40;;;8.60;72.40;;;;;;5033176;28;20477;-15
2022/04/15 00:23:41;;;;;;;31.02;18.33;;;8.60;73.00;;;;;;5033144;28;20037;-15
2022/04/15 00:26:07;;;;;;;28.17;17.13;;;8.50;72.70;;;;;;5033194;28;20022;-13
2022/04/15 00:28:34;;;;;;;31.95;19.27;;;8.50;72.70;;;;;;5032877;28;20064;-14
2022/04/15 00:31:00;;;;;;;36.53;19.83;;;8.40;73.80;;;;;;5033366;28;20037;-14
2022/04/15 00:33:26;;;;;;;30.67;18.58;;;8.40;73.60;;;;;;5032076;28;20061;-15
2022/04/15 00:35:52;;;;;;;32.15;19.33;;;8.40;73.30;;;;;;5032997;28;20044;-15
2022/04/15 00:38:18;;;;;;;29.77;18.25;;;8.40;74.20;;;;;;5033025;28;20038;-16
2022/04/15 00:40:44;;;;;;;49.47;27.17;;;8.40;73.40;;;;;;5031655;28;20170;-15
2022/04/15 00:43:10;;;;;;;39.92;22.30;;;8.40;74.30;;;;;;5033274;28;20040;-15
2022/04/15 00:45:36;;;;;;;36.45;21.73;;;8.40;73.10;;;;;;5033226;28;20489;-14
2022/04/15 00:48:02;;;;;;;32.47;19.52;;;8.30;73.70;;;;;;5033197;28;20029;-14
2022/04/15 00:50:35;;;;;;;34.90;21.77;;;8.30;73.30;;;;;;5033050;28;20052;-13
2022/04/15 00:53:07;;;;;;;33.33;19.80;;;8.20;73.50;;;;;;5033247;28;20037;-15
2022/04/15 00:55:34;;;;;;;30.08;18.67;;;8.20;73.70;;;;;;5032826;28;20021;-14
2022/04/15 00:58:02;;;;;;;38.47;22.58;;;8.20;73.30;;;;;;5032680;28;20038;-15
2022/04/15 01:00:30;;;;;;;24.35;14.57;;;8.20;73.70;;;;;;5032993;28;20079;-15
2022/04/15 01:02:57;;;;;;;33.55;19.45;;;8.10;73.10;;;;;;5033087;28;20041;-15
2022/04/15 01:05:25;;;;;;;36.97;20.38;;;8.10;73.30;;;;;;5032812;28;20124;-14
2022/04/15 01:07:55;;;;;;;38.65;22.00;;;8.10;73.50;;;;;;5032969;28;20028;-15
2022/04/15 01:10:22;;;;;;;40.60;22.92;;;8.10;73.90;;;;;;5032884;28;20029;-14
2022/04/15 01:12:54;;;;;;;53.10;29.85;;;8.00;73.90;;;;;;5033024;28;20022;-14
2022/04/15 01:15:26;;;;;;;40.95;23.50;;;7.90;74.50;;;;;;5032703;28;20389;-14
2022/04/15 01:17:52;;;;;;;57.00;31.33;;;7.90;74.00;;;;;;5032914;28;20113;-15
2022/04/15 01:20:18;;;;;;;42.40;25.13;;;7.90;74.60;;;;;;5032480;28;20030;-13
2022/04/15 01:23:08;;;;;;;38.97;21.65;;;7.90;75.00;;;;;;5032868;28;20052;-15
2022/04/15 01:25:35;;;;;;;29.63;18.17;;;7.80;74.40;;;;;;5030102;28;20037;-14
2022/04/15 01:28:01;;;;;;;31.17;18.83;;;7.80;74.10;;;;;;5037074;28;20109;-15
2022/04/15 01:30:28;;;;;;;38.72;22.88;;;7.80;73.90;;;;;;5036048;28;20033;-12
2022/04/15 01:32:53;;;;;;;41.65;23.70;;;7.80;74.40;;;;;;5036163;28;20481;-13
2022/04/15 01:35:20;;;;;;;37.17;21.50;;;7.70;75.00;;;;;;5036457;28;20214;-14
2022/04/15 01:37:48;;;;;;;41.50;22.98;;;7.70;74.30;;;;;;5034856;28;20030;-13
2022/04/15 01:40:16;;;;;;;33.83;19.52;;;7.60;74.60;;;;;;5035852;28;20029;-13
2022/04/15 01:42:44;;;;;;;40.00;22.30;;;7.60;74.10;;;;;;5036207;28;20025;-13
2022/04/15 01:45:11;;;;;;;36.60;22.17;;;7.60;74.10;;;;;;5036001;28;20508;-14
2022/04/15 01:47:38;;;;;;;35.85;21.25;;;7.60;74.20;;;;;;5035968;28;20065;-13
2022/04/15 01:50:06;;;;;;;41.42;24.08;;;7.60;74.30;;;;;;5036184;28;20034;-15
2022/04/15 01:52:32;;;;;;;42.42;23.08;;;7.60;74.50;;;;;;5035590;28;20546;-14
2022/04/15 01:54:58;;;;;;;41.22;21.83;;;7.60;74.40;;;;;;5035700;28;20112;-14
2022/04/15 01:57:25;;;;;;;41.00;23.55;;;7.50;74.50;;;;;;5035942;28;20052;-16
2022/04/15 01:59:51;;;;;;;42.05;24.23;;;7.60;74.80;;;;;;5035799;28;20033;-15
2022/04/15 02:02:17;;;;;;;41.47;24.58;;;7.50;74.90;;;;;;5035410;28;20135;-16
2022/04/15 02:04:44;;;;;;;42.72;25.33;;;7.60;74.80;;;;;;5035657;28;20029;-15
2022/04/15 02:07:10;;;;;;;37.17;20.20;;;7.50;74.90;;;;;;5036144;28;20616;-15
2022/04/15 02:09:36;;;;;;;43.83;23.10;;;7.40;75.10;;;;;;5035590;28;20021;-13
2022/04/15 02:12:02;;;;;;;43.58;23.90;;;7.40;75.00;;;;;;5035493;28;20044;-14
2022/04/15 02:14:28;;;;;;;40.30;24.08;;;7.40;75.80;;;;;;5035175;28;20052;-14
2022/04/15 02:16:54;;;;;;;44.28;26.65;;;7.50;76.10;;;;;;5034102;28;20119;-15
2022/04/15 02:19:21;;;;;;;38.65;23.42;;;7.40;75.70;;;;;;5035275;28;20036;-15
2022/04/15 02:21:47;;;;;;;40.60;23.48;;;7.40;75.90;;;;;;5035346;28;20033;-15
2022/04/15 02:24:14;;;;;;;38.15;22.40;;;7.30;75.50;;;;;;5035020;28;20052;-17
2022/04/15 02:26:41;;;;;;;51.20;28.75;;;7.30;74.90;;;;;;5034985;28;20033;-15
2022/04/15 02:29:07;;;;;;;43.97;24.23;;;7.30;76.10;;;;;;5035394;28;20029;-15
2022/04/15 02:31:33;;;;;;;56.25;32.45;;;7.20;76.20;;;;;;5035295;28;20535;-14
2022/04/15 02:33:59;;;;;;;46.42;25.05;;;7.30;76.70;;;;;;5035256;28;20489;-14
2022/04/15 02:36:25;;;;;;;35.88;23.35;;;7.20;76.50;;;;;;5032678;28;20026;-16
2022/04/15 02:38:51;;;;;;;40.17;24.08;;;7.10;76.30;;;;;;5033757;28;20025;-15
2022/04/15 02:41:17;;;;;;;52.60;29.52;;;7.10;76.40;;;;;;5034807;28;20033;-17
2022/04/15 02:43:43;;;;;;;28.17;16.38;;;7.10;76.50;;;;;;5035190;28;20032;-17
2022/04/15 02:46:10;;;;;;;42.17;24.73;;;7.00;75.50;;;;;;5035049;28;20029;-16
2022/04/15 02:48:37;;;;;;;36.92;22.20;;;7.00;75.60;;;;;;5033412;28;20025;-16
2022/04/15 02:51:03;;;;;;;38.50;22.25;;;7.00;75.50;;;;;;5035055;28;20095;-17
2022/04/15 02:53:30;;;;;;;44.05;26.40;;;6.90;75.50;;;;;;5035313;28;20025;-16
2022/04/15 02:55:57;;;;;;;48.53;26.02;;;6.90;75.70;;;;;;5034768;28;20017;-16
2022/04/15 02:58:23;;;;;;;38.10;23.85;;;6.90;75.90;;;;;;5034530;28;20052;-16
2022/04/15 03:00:50;;;;;;;40.55;25.67;;;6.90;76.00;;;;;;5034558;28;20477;-16
2022/04/15 03:03:16;;;;;;;53.13;29.50;;;6.90;76.60;;;;;;5034481;28;20493;-16
2022/04/15 03:05:42;;;;;;;60.80;34.20;;;6.90;77.00;;;;;;5034178;28;20053;-17
2022/04/15 03:08:09;;;;;;;62.00;33.75;;;6.80;77.50;;;;;;5034644;28;20037;-15
2022/04/15 03:10:35;;;;;;;51.60;29.67;;;6.80;77.60;;;;;;5034109;28;20032;-15
2022/04/15 03:13:01;;;;;;;43.65;26.05;;;6.70;77.10;;;;;;5034632;28;20037;-16
2022/04/15 03:15:27;;;;;;;56.60;31.85;;;6.70;76.60;;;;;;5034572;28;20022;-14
2022/04/15 03:17:53;;;;;;;36.33;22.27;;;6.70;76.70;;;;;;5034796;28;20489;-14
2022/04/15 03:20:19;;;;;;;45.97;26.63;;;6.60;76.70;;;;;;5033965;28;20045;-16
2022/04/15 03:22:45;;;;;;;37.53;21.55;;;6.70;77.20;;;;;;5034765;28;20463;-14
2022/04/15 03:25:17;;;;;;;38.92;20.80;;;6.70;76.70;;;;;;5034323;28;20025;-16
2022/04/15 03:27:44;;;;;;;41.70;25.30;;;6.70;76.60;;;;;;5034001;28;20030;-16
2022/04/15 03:30:14;;;;;;;43.22;24.02;;;6.70;77.10;;;;;;5034795;28;20041;-15
2022/04/15 03:32:52;;;;;;;51.13;30.67;;;6.70;77.00;;;;;;5033911;28;20104;-14
2022/04/15 03:35:21;;;;;;;36.42;22.23;;;6.60;77.10;;;;;;5034216;28;20056;-13
2022/04/15 03:37:51;;;;;;;39.30;23.77;;;6.60;77.30;;;;;;5033879;28;20432;-14
2022/04/15 03:40:19;;;;;;;37.53;22.10;;;6.60;77.20;;;;;;5033518;28;20032;-14
2022/04/15 03:42:52;;;;;;;47.85;26.95;;;6.60;77.20;;;;;;5034053;28;20024;-14
2022/04/15 03:45:19;;;;;;;39.40;24.38;;;6.50;77.30;;;;;;5034394;28;20033;-14
2022/04/15 03:47:46;;;;;;;37.47;23.80;;;6.50;77.70;;;;;;5033718;28;20029;-14
2022/04/15 03:50:13;;;;;;;46.55;27.33;;;6.50;77.70;;;;;;5033614;28;20473;-15
2022/04/15 03:52:46;;;;;;;42.88;25.25;;;6.50;77.60;;;;;;5033990;28;20029;-14
2022/04/15 03:55:13;;;;;;;44.15;26.15;;;6.40;76.80;;;;;;5034030;28;20034;-12
2022/04/15 03:57:39;;;;;;;52.70;30.65;;;6.40;76.70;;;;;;5033743;28;20428;-14
2022/04/15 04:00:08;;;;;;;49.85;29.80;;;6.40;77.00;;;;;;5033531;28;20022;-17
2022/04/15 04:02:34;;;;;;;47.72;27.25;;;6.40;77.10;;;;;;5032406;28;20087;-16
2022/04/15 04:05:01;;;;;;;44.05;26.95;;;6.30;77.90;;;;;;5033084;28;20057;-16
2022/04/15 04:07:27;;;;;;;38.83;22.35;;;6.40;77.60;;;;;;5033594;28;20037;-16
2022/04/15 04:09:53;;;;;;;35.53;20.77;;;6.30;77.60;;;;;;5033665;28;20026;-14
2022/04/15 04:12:19;;;;;;;37.13;23.20;;;6.40;77.30;;;;;;5033115;28;20029;-16
2022/04/15 04:14:45;;;;;;;46.95;27.48;;;6.40;77.40;;;;;;5033571;28;20072;-14
2022/04/15 04:17:17;;;;;;;42.47;25.38;;;6.30;77.60;;;;;;5033214;28;20469;-14
2022/04/15 04:19:42;;;;;;;43.15;26.77;;;6.30;77.60;;;;;;5033267;28;20036;-15
2022/04/15 04:22:08;;;;;;;49.15;29.17;;;6.30;78.20;;;;;;5033201;28;20029;-15
2022/04/15 04:24:34;;;;;;;50.60;29.73;;;6.20;78.50;;;;;;5033807;28;20029;-16
2022/04/15 04:27:00;;;;;;;42.67;24.10;;;6.20;77.90;;;;;;5033251;28;20184;-14
2022/04/15 04:29:26;;;;;;;39.92;24.83;;;6.20;77.80;;;;;;5033161;28;20377;-12
2022/04/15 04:31:52;;;;;;;58.08;31.90;;;6.10;77.80;;;;;;5033695;28;20370;-14
2022/04/15 04:34:18;;;;;;;51.78;30.52;;;6.10;78.20;;;;;;5033301;28;20033;-16
2022/04/15 04:36:44;;;;;;;47.70;27.85;;;6.10;78.30;;;;;;5033223;28;20430;-14
2022/04/15 04:39:10;;;;;;;47.60;26.25;;;6.10;77.90;;;;;;5033355;28;20430;-13
2022/04/15 04:41:38;;;;;;;39.88;24.30;;;6.10;78.40;;;;;;5033204;28;20033;-13
2022/04/15 04:44:05;;;;;;;42.97;25.70;;;6.10;78.40;;;;;;5032905;28;20043;-12
2022/04/15 04:46:32;;;;;;;42.67;25.35;;;6.10;78.10;;;;;;5031556;28;20041;-13
2022/04/15 04:48:58;;;;;;;46.92;26.40;;;6.20;78.50;;;;;;5032862;28;20567;-14
2022/04/15 04:51:24;;;;;;;43.20;26.13;;;6.30;78.60;;;;;;5033233;28;20075;-13
2022/04/15 04:53:50;;;;;;;45.88;27.80;;;6.30;79.00;;;;;;5033155;28;20030;-15
2022/04/15 04:56:16;;;;;;;54.42;29.50;;;6.40;79.30;;;;;;5032618;28;20068;-13
2022/04/15 04:58:42;;;;;;;57.72;32.38;;;6.50;79.60;;;;;;5032845;28;20034;-14
2022/04/15 05:01:08;;;;;;;57.33;31.25;;;6.60;79.10;;;;;;5036334;28;20018;-14
2022/04/15 05:03:34;;;;;;;49.10;28.42;;;6.80;79.20;;;;;;5037028;28;20029;-14
2022/04/15 05:06:00;;;;;;;62.00;32.88;;;6.90;79.40;;;;;;5036467;28;20485;-17
2022/04/15 05:08:25;;;;;;;44.22;26.98;;;7.10;79.40;;;;;;5036698;28;20029;-16
2022/04/15 05:10:51;;;;;;;48.03;25.63;;;7.30;79.40;;;;;;5037159;28;20378;-14
2022/04/15 05:13:17;;;;;;;46.95;27.70;;;7.60;79.40;;;;;;5036906;28;20024;-17
2022/04/15 05:15:43;;;;;;;49.15;26.85;;;7.90;79.20;;;;;;5036543;28;20057;-16
2022/04/15 05:18:09;;;;;;;47.70;27.17;;;8.20;79.00;;;;;;5036956;28;20049;-16
2022/04/15 05:20:37;;;;;;;46.50;27.13;;;8.50;78.60;;;;;;5036303;28;20385;-17
2022/04/15 05:23:03;;;;;;;47.67;27.30;;;8.80;78.10;;;;;;5036353;28;20040;-16
2022/04/15 05:25:29;;;;;;;39.03;24.27;;;9.10;77.80;;;;;;5036222;28;20060;-14
2022/04/15 05:27:58;;;;;;;49.50;27.98;;;9.50;77.10;;;;;;5036247;28;20115;-15
2022/04/15 05:30:25;;;;;;;45.35;25.70;;;9.80;76.60;;;;;;5036075;28;20115;-15
2022/04/15 05:32:51;;;;;;;47.05;28.27;;;10.10;75.90;;;;;;5036198;28;20033;-16
2022/04/15 05:35:17;;;;;;;50.22;29.15;;;10.40;75.30;;;;;;5036932;28;20095;-16
2022/04/15 05:37:43;;;;;;;48.60;27.38;;;10.70;74.90;;;;;;5036308;28;20089;-15
2022/04/15 05:40:09;;;;;;;48.03;27.35;;;10.90;74.50;;;;;;5034746;28;20022;-14
2022/04/15 05:42:35;;;;;;;43.90;27.60;;;11.10;74.40;;;;;;5036036;28;20374;-16
2022/04/15 05:45:02;;;;;;;51.17;31.83;;;11.30;74.20;;;;;;5036325;28;20034;-14
2022/04/15 05:47:28;;;;;;;46.20;27.27;;;11.60;74.00;;;;;;5036104;28;20424;-15
2022/04/15 05:49:53;;;;;;;47.75;30.85;;;11.90;73.70;;;;;;5036112;28;20033;-15
2022/04/15 05:52:19;;;;;;;39.20;26.08;;;12.20;73.30;;;;;;5035631;28;20036;-17
2022/04/15 05:54:46;;;;;;;37.60;24.60;;;12.30;73.30;;;;;;5036476;28;20032;-16
2022/04/15 05:57:12;;;;;;;45.67;28.92;;;12.50;73.40;;;;;;5035615;28;20112;-15
2022/04/15 05:59:38;;;;;;;55.30;35.25;;;12.70;73.30;;;;;;5036310;28;20084;-15
2022/04/15 06:02:04;;;;;;;48.35;30.08;;;12.90;72.80;;;;;;5036306;28;20350;-15
2022/04/15 06:04:30;;;;;;;37.60;23.83;;;13.00;72.50;;;;;;5036048;28;20022;-15
2022/04/15 06:06:56;;;;;;;41.40;27.38;;;13.10;72.80;;;;;;5035454;28;20092;-14
2022/04/15 06:09:22;;;;;;;45.97;28.58;;;13.40;72.90;;;;;;5035543;28;20025;-16
2022/04/15 06:11:52;;;;;;;45.55;31.10;;;13.60;72.60;;;;;;5035125;28;20098;-14
2022/04/15 06:14:22;;;;;;;48.03;31.30;;;13.90;72.10;;;;;;5035941;28;20028;-14
2022/04/15 06:16:49;;;;;;;46.80;28.90;;;14.30;71.30;;;;;;5035392;28;20029;-16
2022/04/15 06:19:16;;;;;;;38.33;26.02;;;14.60;70.60;;;;;;5035350;28;20547;-14
2022/04/15 06:21:42;;;;;;;40.45;28.25;;;14.90;70.00;;;;;;5035660;28;20028;-16
2022/04/15 06:24:09;;;;;;;44.20;29.90;;;15.30;69.20;;;;;;5035595;28;20029;-14
2022/04/15 06:26:36;;;;;;;42.22;27.38;;;15.70;68.30;;;;;;5035432;28;20033;-15
2022/04/15 06:29:02;;;;;;;38.03;26.17;;;16.00;67.10;;;;;;5035478;28;20064;-14
2022/04/15 06:31:28;;;;;;;39.72;26.58;;;16.30;66.30;;;;;;5035459;28;20358;-14
2022/04/15 06:33:54;;;;;;;41.95;26.80;;;16.60;65.50;;;;;;5035382;28;20029;-14
2022/04/15 06:36:20;;;;;;;40.95;27.95;;;16.80;64.80;;;;;;5035064;28;20112;-14
2022/04/15 06:38:46;;;;;;;42.80;26.83;;;17.10;63.90;;;;;;5035396;28;20075;-14
2022/04/15 06:41:13;;;;;;;34.70;23.52;;;17.40;63.20;;;;;;5035273;28;20532;-14
2022/04/15 06:43:39;;;;;;;35.35;23.70;;;17.70;62.20;;;;;;5035250;28;20022;-14
2022/04/15 06:46:05;;;;;;;31.52;20.40;;;17.90;60.60;;;;;;5035124;28;20436;-14
2022/04/15 06:48:32;;;;;;;31.05;21.48;;;18.00;60.30;;;;;;5034845;28;20041;-15
2022/04/15 06:50:58;;;;;;;32.90;21.80;;;18.30;59.30;;;;;;5033976;28;20021;-15
2022/04/15 06:53:24;;;;;;;27.23;19.13;;;18.50;59.40;;;;;;5034692;28;20030;-14
2022/04/15 06:55:51;;;;;;;37.35;25.25;;;18.70;57.90;;;;;;5033766;28;20082;-15
2022/04/15 06:58:17;;;;;;;34.08;23.45;;;18.90;57.90;;;;;;5034495;28;20588;-14
2022/04/15 07:00:43;;;;;;;36.13;23.90;;;19.10;57.30;;;;;;5034769;28;20389;-14
2022/04/15 07:03:10;;;;;;;47.58;31.58;;;19.30;56.60;;;;;;5034849;28;20087;-15
2022/04/15 07:05:36;;;;;;;52.85;33.13;;;19.50;55.70;;;;;;5034334;28;20590;-15
2022/04/15 07:08:02;;;;;;;39.03;28.77;;;19.60;54.90;;;;;;5034360;28;20069;-16
2022/04/15 07:10:28;;;;;;;43.00;29.95;;;19.70;54.80;;;;;;5034085;28;20083;-15
2022/04/15 07:12:54;;;;;;;42.08;30.30;;;19.70;54.80;;;;;;5034817;28;20020;-14
2022/04/15 07:15:23;;;;;;;44.30;29.17;;;19.90;54.50;;;;;;5034484;28;20025;-13
2022/04/15 07:17:49;;;;;;;37.17;27.00;;;20.00;54.00;;;;;;5034579;28;20067;-14
2022/04/15 07:20:15;;;;;;;37.97;25.35;;;20.20;53.70;;;;;;5034326;28;20084;-14
2022/04/15 07:22:41;;;;;;;37.08;24.88;;;20.40;52.90;;;;;;5033780;28;20429;-14
2022/04/15 07:25:08;;;;;;;37.70;25.20;;;20.50;51.90;;;;;;5034433;28;20067;-15
2022/04/15 07:27:34;;;;;;;34.38;21.38;;;20.60;51.20;;;;;;5032671;28;20036;-14
2022/04/15 07:30:00;;;;;;;37.15;23.63;;;20.70;51.00;;;;;;5034323;28;20021;-14
2022/04/15 07:32:27;;;;;;;28.73;18.90;;;20.70;48.60;;;;;;5033968;28;20052;-14
2022/04/15 07:34:54;;;;;;;34.55;21.48;;;20.70;49.90;;;;;;5034488;28;20045;-14
2022/04/15 07:37:20;;;;;;;29.90;20.08;;;20.80;49.70;;;;;;5033962;28;20067;-14
2022/04/15 07:39:46;;;;;;;29.60;18.77;;;21.00;49.30;;;;;;5034148;28;20034;-14
2022/04/15 07:42:12;;;;;;;25.13;16.75;;;21.10;49.00;;;;;;5033772;28;20041;-14
2022/04/15 07:44:44;;;;;;;25.33;17.67;;;21.30;48.90;;;;;;5034709;28;20034;-14
2022/04/15 07:47:10;;;;;;;28.95;19.25;;;21.40;48.40;;;;;;5034114;28;20030;-13
2022/04/15 07:49:36;;;;;;;31.15;19.52;;;21.60;47.70;;;;;;5034013;28;20083;-13
2022/04/15 07:52:06;;;;;;;29.02;18.05;;;21.70;46.80;;;;;;5032408;28;20112;-13
2022/04/15 07:54:33;;;;;;;32.47;19.88;;;21.80;46.80;;;;;;5033644;28;20030;-14
2022/04/15 07:57:00;;;;;;;31.88;19.27;;;21.90;45.80;;;;;;5033767;28;20040;-13
2022/04/15 07:59:26;;;;;;;30.15;20.75;;;21.90;45.30;;;;;;5033536;28;20025;-14
2022/04/15 08:01:53;;;;;;;31.10;19.30;;;22.00;44.90;;;;;;5033744;28;20032;-14
2022/04/15 08:04:19;;;;;;;32.20;20.73;;;22.00;45.10;;;;;;5033215;28;20397;-14
2022/04/15 08:06:45;;;;;;;26.92;17.17;;;22.10;43.50;;;;;;5033169;28;20048;-14
2022/04/15 08:09:11;;;;;;;28.75;17.20;;;22.20;43.00;;;;;;5033645;28;20034;-14
2022/04/15 08:11:38;;;;;;;23.85;15.30;;;22.20;43.50;;;;;;5033263;28;20040;-15
2022/04/15 08:14:05;;;;;;;34.13;18.35;;;22.30;43.20;;;;;;5033377;28;20063;-14
2022/04/15 08:16:31;;;;;;;27.77;16.75;;;22.40;42.00;;;;;;5033439;28;20026;-14
2022/04/15 08:19:00;;;;;;;25.73;16.63;;;22.60;39.90;;;;;;5033391;28;20355;-14
2022/04/15 08:21:26;;;;;;;23.10;14.57;;;22.60;40.30;;;;;;5033573;28;20104;-14
2022/04/15 08:23:51;;;;;;;26.65;16.15;;;22.70;41.00;;;;;;5033326;28;20104;-14
2022/04/15 08:26:17;;;;;;;27.05;17.38;;;22.80;41.40;;;;;;5032966;28;20030;-14
2022/04/15 08:28:43;;;;;;;20.58;13.35;;;22.90;41.50;;;;;;5033328;28;20497;-12
2022/04/15 08:31:09;;;;;;;22.73;15.75;;;22.70;42.20;;;;;;5033381;28;20152;-14
2022/04/15 08:33:35;;;;;;;18.17;10.52;;;22.70;42.70;;;;;;5033005;28;20021;-15
2022/04/15 08:36:02;;;;;;;19.58;11.45;;;22.70;42.10;;;;;;5032687;28;20539;-14
2022/04/15 08:38:28;;;;;;;18.98;10.77;;;22.80;41.60;;;;;;5032856;28;20032;-14
2022/04/15 08:40:57;;;;;;;25.38;14.68;;;22.90;41.20;;;;;;5032992;28;20025;-14
2022/04/15 08:43:25;;;;;;;23.23;15.10;;;23.20;39.80;;;;;;5033212;28;20018;-15
2022/04/15 08:45:52;;;;;;;24.60;15.70;;;23.40;40.20;;;;;;5032975;28;20120;-14
2022/04/15 08:48:18;;;;;;;28.85;15.25;;;23.60;39.20;;;;;;5032647;28;20045;-14
2022/04/15 08:50:44;;;;;;;30.55;15.93;;;23.80;38.90;;;;;;5032912;28;20033;-15
2022/04/15 08:53:10;;;;;;;25.55;13.95;;;24.00;38.10;;;;;;5033254;28;20017;-14
2022/04/15 08:55:36;;;;;;;23.73;13.13;;;24.00;38.40;;;;;;5032831;28;20519;-14
2022/04/15 08:58:03;;;;;;;22.65;12.32;;;24.10;38.70;;;;;;5033131;28;20033;-14
2022/04/15 09:00:29;;;;;;;22.70;12.13;;;24.20;37.40;;;;;;5032936;28;20017;-14
2022/04/15 09:02:56;;;;;;;20.77;11.60;;;24.40;36.40;;;;;;5033404;28;20040;-13
2022/04/15 09:05:27;;;;;;;23.73;11.85;;;24.50;34.30;;;;;;5032866;28;20460;-14
2022/04/15 09:08:05;;;;;;;18.45;10.55;;;24.50;34.60;;;;;;5032759;28;20374;-14
2022/04/15 09:10:33;;;;;;;19.75;10.70;;;24.50;35.60;;;;;;5032904;28;20099;-13
2022/04/15 09:13:01;;;;;;;22.73;10.82;;;24.60;35.80;;;;;;5033017;28;20014;-14
2022/04/15 09:15:27;;;;;;;20.08;10.70;;;24.80;35.80;;;;;;5032702;28;20412;-13
2022/04/15 09:17:54;;;;;;;18.23;9.40;;;24.90;34.90;;;;;;5032712;28;20412;-13
2022/04/15 09:20:22;;;;;;;20.20;9.90;;;25.00;34.30;;;;;;5032511;28;20477;-13
2022/04/15 09:22:53;;;;;;;19.65;10.05;;;25.10;34.40;;;;;;5032603;28;20022;-13
2022/04/15 09:25:27;;;;;;;20.92;10.68;;;25.20;32.60;;;;;;5032638;28;20065;-13
2022/04/15 09:27:57;;;;;;;19.85;10.80;;;25.10;32.80;;;;;;5032563;28;20091;-13
2022/04/15 09:30:39;;;;;;;20.17;10.80;;;25.00;33.30;;;;;;5032398;28;20026;-13
2022/04/15 09:33:09;;;;;;;22.60;10.27;;;25.00;34.10;;;;;;5032512;28;20022;-13
2022/04/15 09:35:35;;;;;;;21.77;10.50;;;25.10;33.30;;;;;;5032843;28;20112;-14
2022/04/15 09:38:03;;;;;;;18.30;10.05;;;25.10;33.50;;;;;;5032489;28;20063;-14
2022/04/15 09:40:35;;;;;;;22.60;11.15;;;25.10;34.10;;;;;;5032322;28;20036;-14
2022/04/15 09:43:04;;;;;;;22.83;11.02;;;25.30;34.20;;;;;;5032852;28;20032;-13
2022/04/15 09:45:33;;;;;;;20.27;9.93;;;25.40;33.70;;;;;;5033342;28;20071;-13
2022/04/15 09:48:01;;;;;;;18.52;9.25;;;25.40;33.20;;;;;;5036083;28;20021;-14
2022/04/15 09:50:42;;;;;;;18.55;9.27;;;25.50;33.10;;;;;;5036036;28;20087;-14
2022/04/15 09:53:12;;;;;;;19.55;9.15;;;25.60;32.10;;;;;;5036252;28;20434;-14
2022/04/15 09:55:41;;;;;;;20.70;9.77;;;25.80;33.00;;;;;;5036408;28;20056;-14
2022/04/15 09:58:16;;;;;;;16.70;8.65;;;25.90;32.10;;;;;;5035876;28;20363;-14
2022/04/15 10:00:48;;;;;;;18.40;9.13;;;26.00;32.00;;;;;;5036076;28;20026;-15
2022/04/15 10:03:20;;;;;;;22.27;10.65;;;26.10;32.00;;;;;;5036284;28;20025;-14
2022/04/15 10:05:48;;;;;;;19.83;10.55;;;26.20;31.70;;;;;;5035420;28;20080;-13
2022/04/15 10:08:16;;;;;;;19.52;11.05;;;26.30;31.90;;;;;;5035419;28;20059;-15
2022/04/15 10:10:43;;;;;;;20.33;11.63;;;26.40;32.20;;;;;;5035354;28;20048;-14
2022/04/15 10:13:09;;;;;;;19.38;11.32;;;26.50;31.70;;;;;;5035433;28;20021;-14
2022/04/15 10:15:37;;;;;;;21.40;11.88;;;26.70;31.10;;;;;;5035825;28;20026;-15
2022/04/15 10:18:04;;;;;;;23.45;11.10;;;26.90;30.40;;;;;;5035889;28;20021;-14
2022/04/15 10:20:31;;;;;;;18.42;9.40;;;27.00;31.00;;;;;;5035188;28;20033;-14
2022/04/15 10:23:06;;;;;;;20.05;10.85;;;27.20;31.30;;;;;;5035356;28;20071;-14
2022/04/15 10:25:34;;;;;;;23.90;11.30;;;27.40;30.60;;;;;;5034056;28;20084;-14
2022/04/15 10:28:09;;;;;;;18.85;9.70;;;27.70;30.40;;;;;;5035163;28;20067;-14
2022/04/15 10:30:35;;;;;;;21.38;10.70;;;27.90;30.70;;;;;;5035113;28;20029;-15
2022/04/15 10:33:02;;;;;;;23.63;12.45;;;28.10;30.20;;;;;;5035477;28;20083;-13
2022/04/15 10:35:33;;;;;;;18.88;10.52;;;28.40;29.30;;;;;;5035435;28;20499;-14
2022/04/15 10:38:12;;;;;;;21.20;10.65;;;28.50;29.60;;;;;;5035110;28;20025;-14
2022/04/15 10:40:43;;;;;;;17.98;8.85;;;28.70;27.80;;;;;;5035217;28;20018;-14
2022/04/15 10:43:24;;;;;;;16.65;8.35;;;28.90;27.60;;;;;;5035563;28;20045;-13
2022/04/15 10:46:10;;;;;;;15.15;7.75;;;29.00;27.80;;;;;;5035159;28;20080;-14
2022/04/15 10:48:38;;;;;;;15.82;7.45;;;29.30;26.90;;;;;;5034594;28;20029;-14
2022/04/15 10:51:34;;;;;;;16.00;7.53;;;29.40;26.80;;;;;;5035355;28;20100;-16
2022/04/15 10:54:36;;;;;;;13.25;6.90;;;29.40;26.00;;;;;;4993363;28;20081;-13
2022/04/15 10:57:04;;;;;;;11.93;6.68;;;29.50;25.90;;;;;;4992301;28;20206;-13
2022/04/15 11:02:24;;;;;;;11.57;6.53;;;29.50;26.20;;;;;;4993376;28;20085;-13
2022/04/15 11:04:52;;;;;;;12.48;6.70;;;29.70;26.00;;;;;;4992904;28;20081;-13
2022/04/15 11:07:40;;;;;;;11.45;5.95;;;29.90;25.90;;;;;;4993341;28;20419;-13
2022/04/15 11:10:33;;;;;;;8.90;4.75;;;30.00;25.30;;;;;;4993246;28;20133;-14
2022/04/15 11:12:59;;;;;;;;;;;30.10;25.60;;;;;;4993290;28;20081;-13
2022/04/15 11:16:02;;;;;;;7.50;4.57;;;30.40;24.70;;;;;;4993030;28;20447;-13
2022/04/15 11:18:43;;;;;;;10.13;5.13;;;30.70;24.80;;;;;;4992928;28;20261;-14
2022/04/15 11:21:27;;;;;;;9.25;4.38;;;31.00;24.40;;;;;;4993268;28;20032;-13
2022/04/15 11:23:55;;;;;;;9.02;4.40;;;31.10;24.50;;;;;;4992915;28;20045;-13
2022/04/15 11:26:22;;;;;;;10.10;4.43;;;31.20;24.40;;;;;;4992478;28;20072;-14
2022/04/15 11:28:50;;;;;;;9.45;4.40;;;31.40;24.70;;;;;;4992678;28;20034;-13
2022/04/15 11:31:39;;;;;;;8.27;4.70;;;31.50;25.00;;;;;;5028982;28;20034;-13
2022/04/15 11:34:15;;;;;;;8.82;4.30;;;31.70;24.10;;;;;;5034035;28;20025;-14
2022/04/15 11:36:46;;;;;;;8.10;4.55;;;31.70;25.00;;;;;;5034493;28;20047;-13
2022/04/15 11:39:14;;;;;;;7.82;4.65;;;31.90;24.70;;;;;;5034437;28;20112;-13
2022/04/15 11:41:49;;;;;;;8.95;5.05;;;32.00;24.50;;;;;;5033890;28;20101;-13
2022/04/15 11:44:16;;;;;;;8.65;4.70;;;32.10;24.90;;;;;;5033926;28;20100;-14
2022/04/15 11:46:48;;;;;;;8.38;5.10;;;32.20;25.00;;;;;;5033803;28;20037;-13
2022/04/15 11:49:28;;;;;;;8.70;5.00;;;32.40;24.00;;;;;;5034033;28;20108;-14
2022/04/15 11:51:56;;;;;;;6.57;4.20;;;32.40;23.50;;;;;;5033948;28;20424;-14
2022/04/15 11:54:34;;;;;;;7.32;3.97;;;32.60;24.20;;;;;;5033659;28;20045;-13
2022/04/15 11:57:03;;;;;;;7.57;4.75;;;32.80;24.20;;;;;;5033848;28;20033;-14
2022/04/15 11:59:36;;;;;;;9.75;5.45;;;32.90;23.60;;;;;;5033506;28;20087;-14
2022/04/15 12:02:02;;;;;;;8.80;5.00;;;33.20;23.00;;;;;;5033565;28;20033;-14
2022/04/15 12:04:28;;;;;;;7.35;4.40;;;33.30;23.20;;;;;;5033356;28;20034;-13
2022/04/15 12:06:54;;;;;;;7.07;4.80;;;33.00;23.40;;;;;;5033167;28;20053;-14
2022/04/15 12:09:20;;;;;;;7.80;4.63;;;32.80;23.90;;;;;;5033339;28;20040;-14
2022/04/15 12:11:46;;;;;;;9.48;5.10;;;32.80;23.60;;;;;;5033243;28;20044;-14
2022/04/15 12:14:13;;;;;;;8.70;5.20;;;32.90;23.60;;;;;;5033308;28;20025;-14
2022/04/15 12:16:40;;;;;;;9.50;5.13;;;33.00;22.90;;;;;;5033309;28;20029;-13
2022/04/15 12:19:09;;;;;;;9.38;4.72;;;33.10;22.60;;;;;;5033577;28;20029;-14
2022/04/15 12:21:37;;;;;;;6.47;4.03;;;33.20;22.80;;;;;;5033194;28;20028;-13
2022/04/15 12:24:22;;;;;;;5.47;3.85;;;33.20;23.30;;;;;;5033772;28;20395;-13
2022/04/15 12:26:51;;;;;;;6.35;4.18;;;33.40;23.20;;;;;;5033310;28;20025;-14
2022/04/15 12:32:20;;;;;;;7.38;4.80;;;33.50;22.90;;;;;;5033440;28;20032;-13
2022/04/15 12:34:47;;;;;;;7.80;4.18;;;33.60;22.50;;;;;;5033233;28;20056;-14
2022/04/15 12:37:42;;;;;;;6.40;3.92;;;33.60;23.10;;;;;;5033325;28;20021;-13
2022/04/15 12:40:14;;;;;;;7.30;5.18;;;33.80;22.00;;;;;;5033017;28;20025;-13
2022/04/15 12:42:42;;;;;;;11.70;4.18;;;33.90;22.10;;;;;;5033043;28;20428;-13
2022/04/15 12:45:09;;;;;;;10.05;4.70;;;33.90;22.50;;;;;;5033500;28;20029;-13
2022/04/15 12:47:37;;;;;;;9.35;5.00;;;34.00;22.50;;;;;;5033440;28;20053;-14